Kennard Corner, Washington
Current Conditions -  °F | °C
As of 11:53 AM on Thursday 29 Jan 2015 (Local Time) from KPAE Reporting Station
Clear Clear  
Wind Chill: 41°   Ceiling: Unl
Heat Index: 46°   Visibility: 10mi
Dew Point: 37°   Wind: 9mph
Humidity: 71%   Direction: 360°N
Pressure: 30.36"   Gusts: NA
Location:  47.7933°N, 122.207°W
Report Text: KPAE 291953Z 36008KT 10SM CLR 08/03 A3036 RMK AO2 SLP283 T00780028
Loading
Personal Weather Stations






























Interactive Weather Map New forecast layout! Learn more

10-Day Weather Forecast

Advertisements
Track Severe Weather on mobile